Time;durP1;ratioP1;P1;durP2;ratioP2;P2;SDS_P1;SDS_P2;PMS_P1;PMS_P2;Temp;Humidity;BMP_temperature;BMP_pressure;BME280_temperature;BME280_humidity;BME280_pressure;Samples;Min_cycle;Max_cycle;Signal;HPM_P1;HPM_P2
2024/03/07 00:00:29;;;;;;;;;;;;;;;4.91;100.00;99947.72;4994478;28;950;-47
2024/03/07 00:02:56;;;;;;;;;;;;;;;4.89;100.00;99950.03;4994222;28;1918;-47
2024/03/07 00:05:25;;;;;;;;;;;;;;;4.95;100.00;99950.53;4994447;28;827;-47
2024/03/07 00:07:52;;;;;;;;;;;;;;;4.98;100.00;99945.13;4994187;28;871;-49
2024/03/07 00:10:21;;;;;;;;;;;;;;;5.07;100.00;99939.44;4994380;28;836;-48
2024/03/07 00:12:47;;;;;;;;;;;;;;;5.11;100.00;99943.81;4994030;28;883;-49
2024/03/07 00:15:15;;;;;;;;;;;;;;;5.12;100.00;99950.09;4977071;28;815;-49
2024/03/07 00:17:41;;;;;;;;;;;;;;;5.14;100.00;99942.28;4994371;28;820;-48
2024/03/07 00:20:14;;;;;;;;;;;;;;;5.17;100.00;99941.59;4994189;28;843;-48
2024/03/07 00:22:41;;;;;;;;;;;;;;;5.15;100.00;99945.84;4993981;28;1882;-48
2024/03/07 00:25:09;;;;;;;;;;;;;;;5.10;100.00;99944.19;4994024;28;843;-49
2024/03/07 00:27:36;;;;;;;;;;;;;;;5.03;100.00;99947.56;4993895;28;1378;-49
2024/03/07 00:30:04;;;;;;;;;;;;;;;4.95;100.00;99936.81;4993805;28;1367;-48
2024/03/07 00:32:35;;;;;;;;;;;;;;;4.90;100.00;99937.91;4994005;28;856;-47
2024/03/07 00:35:05;;;;;;;;;;;;;;;4.85;100.00;99935.47;4993272;28;942;-48
2024/03/07 00:37:32;;;;;;;;;;;;;;;4.80;100.00;99933.81;4993815;28;863;-48
2024/03/07 00:39:58;;;;;;;;;;;;;;;4.77;100.00;99928.25;4993771;28;847;-47
2024/03/07 00:42:27;;;;;;;;;;;;;;;4.77;100.00;99939.22;4993686;28;1945;-49
2024/03/07 00:44:53;;;;;;;;;;;;;;;4.74;100.00;99931.72;4993607;28;863;-49
2024/03/07 00:47:19;;;;;;;;;;;;;;;4.68;100.00;99926.53;4993615;28;1359;-48
2024/03/07 00:49:49;;;;;;;;;;;;;;;4.62;100.00;99925.22;4993652;28;885;-48
2024/03/07 00:52:15;;;;;;;;;;;;;;;4.55;100.00;99925.09;4993611;28;827;-50
2024/03/07 00:54:42;;;;;;;;;;;;;;;4.55;100.00;99925.09;4993460;28;849;-47
2024/03/07 00:57:09;;;;;;;;;;;;;;;4.54;100.00;99917.22;4993505;28;851;-48
2024/03/07 00:59:36;;;;;;;;;;;;;;;4.50;100.00;99922.63;4993457;28;890;-49
2024/03/07 01:02:03;;;;;;;;;;;;;;;4.44;100.00;99916.66;4993060;28;1977;-49
2024/03/07 01:04:33;;;;;;;;;;;;;;;4.40;100.00;99925.94;4993243;28;950;-49
2024/03/07 01:07:00;;;;;;;;;;;;;;;4.38;100.00;99917.28;4993129;28;930;-47
2024/03/07 01:09:28;;;;;;;;;;;;;;;4.45;100.00;99920.16;4993251;28;843;-48
2024/03/07 01:11:55;;;;;;;;;;;;;;;4.56;100.00;99925.88;4993050;28;931;-47
2024/03/07 01:14:22;;;;;;;;;;;;;;;4.61;100.00;99922.84;4993138;28;924;-50
2024/03/07 01:16:48;;;;;;;;;;;;;;;4.64;100.00;99922.91;4992952;28;899;-50
2024/03/07 01:19:15;;;;;;;;;;;;;;;4.67;100.00;99927.69;4993093;28;922;-48
2024/03/07 01:21:41;;;;;;;;;;;;;;;4.77;100.00;99925.53;4975370;28;2730;-47
2024/03/07 01:24:09;;;;;;;;;;;;;;;4.82;100.00;99919.75;4992996;28;835;-49
2024/03/07 01:26:35;;;;;;;;;;;;;;;4.80;100.00;99925.59;4992795;28;950;-49
2024/03/07 01:29:02;;;;;;;;;;;;;;;4.78;100.00;99916.16;4992837;28;843;-48
2024/03/07 01:31:28;;;;;;;;;;;;;;;4.81;100.00;99924.44;4992807;28;1168;-50
2024/03/07 01:33:55;;;;;;;;;;;;;;;4.83;100.00;99921.34;4992782;28;855;-48
2024/03/07 01:36:21;;;;;;;;;;;;;;;4.81;100.00;99915.44;4992843;28;791;-50
2024/03/07 01:38:47;;;;;;;;;;;;;;;4.78;100.00;99913.41;4992735;28;872;-50
2024/03/07 01:41:14;;;;;;;;;;;;;;;4.78;100.00;99913.41;4992747;28;827;-49
2024/03/07 01:43:41;;;;;;;;;;;;;;;4.71;100.00;99911.31;4992564;28;1883;-48
2024/03/07 01:46:08;;;;;;;;;;;;;;;4.64;100.00;99902.97;4992195;28;1025;-50
2024/03/07 01:48:34;;;;;;;;;;;;;;;4.64;100.00;99901.03;4992377;28;1467;-48
2024/03/07 01:51:03;;;;;;;;;;;;;;;4.63;100.00;99895.91;4992731;28;852;-47
2024/03/07 01:53:30;;;;;;;;;;;;;;;4.58;100.00;99896.97;4975398;28;896;-48
2024/03/07 01:55:58;;;;;;;;;;;;;;;4.52;100.00;99900.38;4992531;28;824;-47
2024/03/07 01:58:25;;;;;;;;;;;;;;;4.47;100.00;99898.72;4975501;28;868;-48
2024/03/07 02:00:52;;;;;;;;;;;;;;;4.36;100.00;99892.22;4992259;28;938;-49
2024/03/07 02:03:19;;;;;;;;;;;;;;;4.22;100.00;99889.94;4992404;28;1899;-49
2024/03/07 02:05:45;;;;;;;;;;;;;;;4.08;100.00;99899.44;4992410;28;867;-48
2024/03/07 02:08:12;;;;;;;;;;;;;;;3.96;100.00;99898.75;4992387;28;870;-51
2024/03/07 02:10:38;;;;;;;;;;;;;;;3.83;100.00;99898.84;4992403;28;879;-48
2024/03/07 02:13:05;;;;;;;;;;;;;;;3.67;100.00;99901.59;4992277;28;928;-49
2024/03/07 02:15:32;;;;;;;;;;;;;;;3.56;100.00;99894.28;4992191;28;871;-48
2024/03/07 02:17:59;;;;;;;;;;;;;;;3.48;100.00;99894.09;4992220;28;958;-48
2024/03/07 02:20:27;;;;;;;;;;;;;;;3.37;100.00;99887.59;4992356;28;909;-47
2024/03/07 02:22:55;;;;;;;;;;;;;;;3.22;100.00;99894.63;4991994;28;1878;-46
2024/03/07 02:25:22;;;;;;;;;;;;;;;3.12;100.00;99902.53;4992265;28;859;-47
2024/03/07 02:27:48;;;;;;;;;;;;;;;2.89;100.00;99910.50;4992169;28;891;-47
2024/03/07 02:30:14;;;;;;;;;;;;;;;2.66;100.00;99908.28;4992265;28;859;-49
2024/03/07 02:32:41;;;;;;;;;;;;;;;2.44;100.00;99912.34;4992065;28;958;-46
2024/03/07 02:35:08;;;;;;;;;;;;;;;2.21;100.00;99910.09;4992053;28;953;-47
2024/03/07 02:37:35;;;;;;;;;;;;;;;2.02;100.00;99904.44;4992073;28;870;-48
2024/03/07 02:40:02;;;;;;;;;;;;;;;1.88;100.00;99902.09;4992121;28;858;-48
2024/03/07 02:42:28;;;;;;;;;;;;;;;1.81;100.00;99908.13;4991965;28;1899;-49
2024/03/07 02:44:54;;;;;;;;;;;;;;;1.79;100.00;99904.94;4992035;28;949;-49
2024/03/07 02:50:37;;;;;;;;;;;;;;;1.71;100.00;99908.56;5004596;28;1262;-48
2024/03/07 02:53:04;;;;;;;;;;;;;;;1.74;100.00;99904.34;5011644;28;850;-47
2024/03/07 02:55:31;;;;;;;;;;;;;;;1.75;100.00;99914.91;5011451;28;886;-45
2024/03/07 02:57:58;;;;;;;;;;;;;;;1.62;100.00;99916.03;5012948;28;838;-47
2024/03/07 03:00:29;;;;;;;;;;;;;;;1.87;100.00;99916.06;5015182;28;913;-49
2024/03/07 03:02:56;;;;;;;;;;;;;;;2.15;100.00;99918.88;5015076;28;1914;-48
2024/03/07 03:05:24;;;;;;;;;;;;;;;2.17;100.00;99908.41;5015107;28;898;-46
2024/03/07 03:07:53;;;;;;;;;;;;;;;2.23;100.00;99912.50;5014966;28;914;-45
2024/03/07 03:10:24;;;;;;;;;;;;;;;2.27;100.00;99905.22;5014952;28;1271;-46
2024/03/07 03:12:51;;;;;;;;;;;;;;;2.13;100.00;99905.56;5014820;28;929;-47
2024/03/07 03:15:20;;;;;;;;;;;;;;;1.86;100.00;99903.53;5015016;28;886;-48
2024/03/07 03:17:47;;;;;;;;;;;;;;;1.63;100.00;99907.53;5014765;28;926;-48
2024/03/07 03:20:25;;;;;;;;;;;;;;;1.55;100.00;99907.63;5014957;28;815;-48
2024/03/07 03:22:53;;;;;;;;;;;;;;;1.48;100.00;99908.19;5014590;28;1890;-47
2024/03/07 03:25:23;;;;;;;;;;;;;;;1.57;100.00;99903.44;5014808;28;799;-47
2024/03/07 03:27:50;;;;;;;;;;;;;;;1.73;100.00;99900.03;5014610;28;929;-48
2024/03/07 03:30:18;;;;;;;;;;;;;;;1.87;100.00;99897.75;5014580;28;902;-48
2024/03/07 03:32:46;;;;;;;;;;;;;;;2.04;100.00;99902.97;5015028;28;1175;-49
2024/03/07 03:35:13;;;;;;;;;;;;;;;2.11;100.00;99907.06;5014669;28;935;-48
2024/03/07 03:37:41;;;;;;;;;;;;;;;2.11;100.00;99907.06;5014737;28;826;-48
2024/03/07 03:40:11;;;;;;;;;;;;;;;2.19;100.00;99904.19;4997146;28;839;-48
2024/03/07 03:42:38;;;;;;;;;;;;;;;2.22;100.00;99902.75;5014480;28;1890;-48
2024/03/07 03:45:07;;;;;;;;;;;;;;;2.30;100.00;99907.25;5014368;28;882;-48
2024/03/07 03:47:37;;;;;;;;;;;;;;;2.39;100.00;99899.75;5015117;28;1040;-48
2024/03/07 03:50:08;;;;;;;;;;;;;;;2.51;100.00;99898.91;5014071;28;1242;-49
2024/03/07 03:52:37;;;;;;;;;;;;;;;2.53;100.00;99904.81;5014317;28;830;-49
2024/03/07 03:55:05;;;;;;;;;;;;;;;2.47;100.00;99911.66;5014199;28;878;-47
2024/03/07 03:57:33;;;;;;;;;;;;;;;2.32;100.00;99910.44;5014153;28;898;-46
2024/03/07 04:00:00;;;;;;;;;;;;;;;2.14;100.00;99914.56;5014077;28;790;-47
2024/03/07 04:02:26;;;;;;;;;;;;;;;1.96;100.00;99908.53;5014175;28;2258;-49
2024/03/07 04:04:52;;;;;;;;;;;;;;;1.78;100.00;99908.00;5013962;28;807;-47
2024/03/07 04:07:19;;;;;;;;;;;;;;;1.67;100.00;99915.81;5014004;28;811;-47
2024/03/07 04:09:46;;;;;;;;;;;;;;;1.74;100.00;99913.31;5013142;28;918;-47
2024/03/07 04:12:12;;;;;;;;;;;;;;;1.88;100.00;99912.19;5013782;28;919;-49
2024/03/07 04:14:42;;;;;;;;;;;;;;;1.98;100.00;99919.91;5013747;28;913;-47
2024/03/07 04:17:11;;;;;;;;;;;;;;;2.08;100.00;99924.91;5013974;28;870;-46
2024/03/07 04:19:41;;;;;;;;;;;;;;;2.15;100.00;99922.38;5013609;28;923;-47
2024/03/07 04:22:08;;;;;;;;;;;;;;;2.16;100.00;99924.00;5013833;28;1894;-47
2024/03/07 04:24:35;;;;;;;;;;;;;;;2.24;100.00;99928.53;5013797;28;806;-47
2024/03/07 04:27:05;;;;;;;;;;;;;;;2.38;100.00;99924.63;5013718;28;1008;-49
2024/03/07 04:29:32;;;;;;;;;;;;;;;2.58;100.00;99928.31;5013675;28;873;-46
2024/03/07 04:32:01;;;;;;;;;;;;;;;2.72;100.00;99936.94;5013614;28;891;-46
2024/03/07 04:34:30;;;;;;;;;;;;;;;2.79;100.00;99937.13;5013569;28;807;-46
2024/03/07 04:37:03;;;;;;;;;;;;;;;2.86;100.00;99931.88;5013357;28;833;-46
2024/03/07 04:39:33;;;;;;;;;;;;;;;2.95;100.00;99934.47;5013755;28;818;-46
2024/03/07 04:42:03;;;;;;;;;;;;;;;2.98;100.00;99931.03;5013193;28;1953;-46
2024/03/07 04:44:32;;;;;;;;;;;;;;;2.99;100.00;99929.13;5013283;28;843;-46
2024/03/07 04:47:00;;;;;;;;;;;;;;;2.96;100.00;99932.53;5013658;28;916;-47
2024/03/07 04:49:31;;;;;;;;;;;;;;;2.97;100.00;99945.84;5013212;28;933;-48
2024/03/07 04:51:58;;;;;;;;;;;;;;;3.01;100.00;99944.00;4995345;28;1270;-47
2024/03/07 04:54:25;;;;;;;;;;;;;;;3.09;100.00;99939.50;5013478;28;878;-46
2024/03/07 04:56:52;;;;;;;;;;;;;;;3.15;100.00;99942.78;5012952;28;993;-47
2024/03/07 04:59:20;;;;;;;;;;;;;;;3.24;100.00;99946.16;5013098;28;921;-47
2024/03/07 05:01:47;;;;;;;;;;;;;;;3.33;100.00;99938.63;5012859;28;1913;-46
2024/03/07 05:04:14;;;;;;;;;;;;;;;3.39;100.00;99934.47;5012978;28;823;-46
2024/03/07 05:06:41;;;;;;;;;;;;;;;3.42;100.00;99938.44;5013188;28;839;-46
2024/03/07 05:09:08;;;;;;;;;;;;;;;3.44;100.00;99936.16;5012784;28;827;-46
2024/03/07 05:11:35;;;;;;;;;;;;;;;3.44;100.00;99936.94;5012701;28;882;-46
2024/03/07 05:14:02;;;;;;;;;;;;;;;3.41;100.00;99947.78;5012637;28;1032;-46
2024/03/07 05:16:29;;;;;;;;;;;;;;;3.39;100.00;99945.41;5013042;28;856;-46
2024/03/07 05:18:59;;;;;;;;;;;;;;;3.39;100.00;99944.59;5012998;28;913;-47
2024/03/07 05:23:59;;;;;;;;;;;;;;;3.41;100.00;99950.50;5012422;28;1890;-47
2024/03/07 05:26:33;;;;;;;;;;;;;;;3.50;100.00;99951.16;5012748;28;842;-46
2024/03/07 05:29:04;;;;;;;;;;;;;;;3.68;100.00;99952.38;5012426;28;871;-47
2024/03/07 05:31:34;;;;;;;;;;;;;;;3.84;100.00;99965.25;5012392;28;891;-46
2024/03/07 05:34:03;;;;;;;;;;;;;;;4.01;100.00;99961.38;5012402;28;918;-46
2024/03/07 05:36:32;;;;;;;;;;;;;;;4.24;100.00;99959.56;5012319;28;867;-46
2024/03/07 05:42:01;;;;;;;;;;;;;;;4.81;100.00;99954.56;5012279;28;1890;-47
2024/03/07 05:44:27;;;;;;;;;;;;;;;5.14;100.00;99952.47;5011908;28;890;-48
2024/03/07 05:46:54;;;;;;;;;;;;;;;5.55;100.00;99961.06;5012590;28;948;-46
2024/03/07 05:49:21;;;;;;;;;;;;;;;5.76;100.00;99955.97;5012412;28;844;-46
2024/03/07 05:51:47;;;;;;;;;;;;;;;5.90;100.00;99961.66;5011965;28;1250;-47
2024/03/07 06:00:26;;;;;;;;;;;;;;;7.46;100.00;99957.09;5012057;28;809;-47
2024/03/07 06:02:53;;;;;;;;;;;;;;;7.65;100.00;99967.88;5011875;28;1973;-47
2024/03/07 06:08:42;;;;;;;;;;;;;;;8.14;100.00;99971.44;5011589;28;788;-48
2024/03/07 06:14:25;;;;;;;;;;;;;;;8.15;100.00;99959.25;5011545;28;791;-47
2024/03/07 09:49:45;;;;;;;;;;;;;;;11.61;58.76;100003.38;4957313;28;1635;-61
2024/03/07 09:52:15;;;;;;;;;;;;;;;11.75;59.40;100003.25;4972960;28;1223;-60
2024/03/07 09:54:42;;;;;;;;;;;;;;;11.81;60.54;100006.41;4973243;28;854;-61
2024/03/07 09:57:09;;;;;;;;;;;;;;;11.90;60.92;100008.75;4973011;28;823;-60
2024/03/07 09:59:40;;;;;;;;;;;;;;;11.58;60.07;100012.47;4973212;28;846;-62
2024/03/07 10:02:09;;;;;;;;;;;;;;;11.27;61.13;100011.47;4972955;28;1980;-60
2024/03/07 10:04:40;;;;;;;;;;;;;;;11.05;62.47;100011.50;4973120;28;960;-61
2024/03/07 10:07:12;;;;;;;;;;;;;;;10.98;62.85;100008.78;4972518;28;921;-61
2024/03/07 10:09:40;;;;;;;;;;;;;;;11.06;62.85;100006.78;4972939;28;863;-60
2024/03/07 10:12:09;;;;;;;;;;;;;;;11.21;63.76;100019.38;4972994;28;827;-60
2024/03/07 10:14:37;;;;;;;;;;;;;;;10.95;61.83;100013.13;4973003;28;905;-61
2024/03/07 10:17:04;;;;;;;;;;;;;;;10.58;64.64;100016.38;4972688;28;862;-61
2024/03/07 10:19:30;;;;;;;;;;;;;;;10.58;64.80;100011.66;4972679;28;844;-62
2024/03/07 10:22:01;;;;;;;;;;;;;;;10.47;64.67;100012.84;4972678;28;902;-62
2024/03/07 10:24:27;;;;;;;;;;;;;;;10.17;64.26;100003.75;4972667;28;906;-62
2024/03/07 10:26:58;;;;;;;;;;;;;;;10.13;66.23;100005.72;4972747;28;819;-61
2024/03/07 10:29:24;;;;;;;;;;;;;;;10.51;66.14;100011.66;4972660;28;866;-62
2024/03/07 10:31:52;;;;;;;;;;;;;;;10.88;64.04;100001.31;4972562;28;918;-61
2024/03/07 10:34:19;;;;;;;;;;;;;;;10.97;62.71;100009.97;4972624;28;858;-61
2024/03/07 10:36:46;;;;;;;;;;;;;;;10.97;62.20;100005.25;4972768;28;815;-61
2024/03/07 10:39:15;;;;;;;;;;;;;;;11.21;61.57;99998.03;4972538;28;839;-61
2024/03/07 10:53:00;;;;;;;;;;;;;;;10.66;62.52;100009.66;4972680;27;4409909;-60
2024/03/07 10:55:32;;;;;;;;;;;;;;;10.71;63.34;100014.78;5130029;27;886;-60
2024/03/07 10:58:02;;;;;;;;;;;;;;;10.55;64.63;100009.66;5129787;27;917;-60
2024/03/07 11:00:35;;;;;;;;;;;;;;;10.49;65.04;100004.94;5130033;27;1930;-59
2024/03/07 11:03:06;;;;;;;;;;;;;;;10.53;66.07;100000.22;5129769;27;920;-59
2024/03/07 11:05:34;;;;;;;;;;;;;;;10.86;64.58;99993.44;5129853;27;859;-60
2024/03/07 11:08:11;;;;;;;;;;;;;;;11.00;63.12;99996.13;5129602;27;1022;-60
2024/03/07 11:10:38;;;;;;;;;;;;;;;10.85;63.44;100005.66;5129840;27;914;-60
2024/03/07 11:13:12;;;;;;;;;;;;;;;10.80;64.58;100006.88;5129723;27;803;-60
2024/03/07 11:15:42;;;;;;;;;;;;;;;10.76;63.20;100003.31;5129541;27;790;-60
2024/03/07 11:18:12;;;;;;;;;;;;;;;10.56;64.92;100000.22;5129448;27;886;-60
2024/03/07 11:20:39;;;;;;;;;;;;;;;10.56;66.88;100002.16;5129508;27;1950;-59
2024/03/07 11:23:26;;;;;;;;;;;;;;;10.83;68.02;100008.03;5129691;27;910;-60
2024/03/07 11:26:13;;;;;;;;;;;;;;;10.46;66.99;100003.00;5129348;27;854;-60
2024/03/07 11:28:43;;;;;;;;;;;;;;;10.01;69.17;99997.84;5129336;27;830;-60
2024/03/07 11:31:09;;;;;;;;;;;;;;;9.93;70.19;99994.28;5129288;27;819;-60
2024/03/07 11:33:40;;;;;;;;;;;;;;;10.04;72.83;99996.25;5129107;27;912;-59
2024/03/07 11:36:07;;;;;;;;;;;;;;;9.97;74.04;100000.59;5129240;27;931;-60
2024/03/07 11:38:34;;;;;;;;;;;;;;;9.86;74.87;99997.03;5129017;27;921;-61
2024/03/07 11:41:05;;;;;;;;;;;;;;;9.80;76.81;99996.63;5129041;27;1909;-60
2024/03/07 11:43:32;;;;;;;;;;;;;;;9.74;77.88;99998.19;5129527;27;894;-61
2024/03/07 11:45:59;;;;;;;;;;;;;;;9.58;81.55;99995.81;5129200;27;944;-61
2024/03/07 11:48:26;;;;;;;;;;;;;;;9.54;83.92;99995.00;5128997;27;829;-61
2024/03/07 11:50:55;;;;;;;;;;;;;;;9.49;81.06;99994.59;5129013;27;1378;-61
2024/03/07 11:53:21;;;;;;;;;;;;;;;9.37;81.75;99993.00;5118267;27;853;-61
2024/03/07 11:55:48;;;;;;;;;;;;;;;9.31;83.99;99994.56;5115167;28;843;-61
2024/03/07 11:58:21;;;;;;;;;;;;;;;9.39;83.26;99993.41;5115006;28;954;-60
2024/03/07 12:00:48;;;;;;;;;;;;;;;9.40;82.50;99989.44;5114995;28;1961;-60
2024/03/07 12:03:17;;;;;;;;;;;;;;;9.48;82.91;99987.50;5114979;28;812;-60
2024/03/07 12:05:44;;;;;;;;;;;;;;;9.37;84.32;99985.50;5114859;28;799;-59
2024/03/07 12:08:11;;;;;;;;;;;;;;;9.15;85.62;99983.84;5114839;28;884;-60
2024/03/07 12:10:44;;;;;;;;;;;;;;;8.98;87.22;99985.34;5114811;28;894;-60
2024/03/07 12:13:12;;;;;;;;;;;;;;;8.94;90.69;99982.59;5114832;28;842;-61
2024/03/07 12:15:42;;;;;;;;;;;;;;;8.85;93.24;99989.63;5113372;28;1373;-60
2024/03/07 12:18:10;;;;;;;;;;;;;;;8.87;95.10;99985.31;5114717;28;870;-60
2024/03/07 12:20:40;;;;;;;;;;;;;;;8.87;96.32;99979.00;5115195;28;1885;-60
2024/03/07 12:23:11;;;;;;;;;;;;;;;8.85;97.70;99973.88;5114561;28;835;-60
2024/03/07 12:25:42;;;;;;;;;;;;;;;8.91;94.30;99969.56;5114549;28;862;-60
2024/03/07 12:28:12;;;;;;;;;;;;;;;8.95;95.41;99975.91;5113207;28;945;-59
2024/03/07 12:30:52;;;;;;;;;;;;;;;8.96;94.76;99968.41;5114479;27;882;-60
2024/03/07 12:33:19;;;;;;;;;;;;;;;8.99;96.83;99973.16;5114442;28;859;-59
2024/03/07 12:35:52;;;;;;;;;;;;;;;8.95;100.00;99969.59;5114402;28;802;-60
2024/03/07 12:38:19;;;;;;;;;;;;;;;8.83;100.00;99973.47;5114219;28;863;-59
2024/03/07 12:40:47;;;;;;;;;;;;;;;8.71;100.00;99969.09;5114237;28;1886;-59
2024/03/07 12:43:16;;;;;;;;;;;;;;;8.87;100.00;99971.53;5114161;28;838;-60
2024/03/07 12:45:48;;;;;;;;;;;;;;;9.03;100.00;99971.22;5114215;28;822;-60
2024/03/07 12:48:16;;;;;;;;;;;;;;;9.13;98.73;99972.41;5114195;28;1196;-60
2024/03/07 12:50:45;;;;;;;;;;;;;;;9.01;99.21;99970.81;5114423;28;1351;-60
2024/03/07 12:53:12;;;;;;;;;;;;;;;8.93;100.00;99977.47;5114001;28;825;-59
2024/03/07 12:55:41;;;;;;;;;;;;;;;8.88;98.59;99972.34;5114026;28;881;-61
2024/03/07 12:58:09;;;;;;;;;;;;;;;8.93;98.23;99978.25;5114038;28;800;-60
2024/03/07 13:00:36;;;;;;;;;;;;;;;9.10;96.91;99965.72;5113800;28;1914;-59
2024/03/07 13:03:02;;;;;;;;;;;;;;;9.19;92.92;99966.13;5113860;28;803;-60
2024/03/07 13:05:29;;;;;;;;;;;;;;;9.12;96.72;99970.84;5112725;28;940;-59
2024/03/07 13:07:55;;;;;;;;;;;;;;;9.09;96.67;99966.91;5113779;28;882;-59
2024/03/07 13:10:23;;;;;;;;;;;;;;;8.87;97.56;99952.22;5113567;28;815;-59
2024/03/07 13:12:51;;;;;;;;;;;;;;;8.88;98.44;99967.59;5113672;28;819;-59
2024/03/07 13:15:18;;;;;;;;;;;;;;;9.07;93.27;99963.75;5112234;28;2352;-59
2024/03/07 13:17:45;;;;;;;;;;;;;;;8.97;92.92;99956.22;5113501;28;846;-60
2024/03/07 13:20:12;;;;;;;;;;;;;;;9.07;96.24;99960.19;5113509;28;1882;-59
2024/03/07 13:22:42;;;;;;;;;;;;;;;9.02;94.79;99955.84;5113653;28;879;-60
2024/03/07 13:25:15;;;;;;;;;;;;;;;8.77;97.11;99953.00;5113200;28;870;-60
2024/03/07 13:27:51;;;;;;;;;;;;;;;8.57;100.00;99952.47;5113250;28;815;-60
2024/03/07 14:08:01;;;;;;;;;;;;;;;8.15;98.43;99954.56;5130502;27;1317;-63
2024/03/07 14:10:35;;;;;;;;;;;;;;;8.16;97.82;99960.84;5129991;28;879;-62
2024/03/07 14:13:04;;;;;;;;;;;;;;;8.12;99.23;99955.31;5129964;28;807;-62
2024/03/07 14:15:43;;;;;;;;;;;;;;;8.06;99.88;99958.78;5111342;28;1902;-62
2024/03/07 14:18:14;;;;;;;;;;;;;;;7.98;100.00;99953.25;5129910;28;862;-62
2024/03/07 14:20:53;;;;;;;;;;;;;;;8.07;100.00;99958.41;5111706;28;1304;-63
2024/03/07 14:23:39;;;;;;;;;;;;;;;8.08;100.00;99948.19;5111386;28;1186;-62
2024/03/07 14:26:24;;;;;;;;;;;;;;;7.94;100.00;99954.38;5111320;28;1322;-62
2024/03/07 14:29:10;;;;;;;;;;;;;;;7.82;100.00;99952.72;5129691;28;811;-62
2024/03/07 14:31:40;;;;;;;;;;;;;;;7.55;100.00;99961.13;5129436;28;850;-63
2024/03/07 14:34:12;;;;;;;;;;;;;;;7.26;100.00;99948.25;5129757;28;835;-63
2024/03/07 14:36:45;;;;;;;;;;;;;;;7.01;100.00;99957.00;5129352;28;1890;-57
2024/03/07 14:39:15;;;;;;;;;;;;;;;6.80;100.00;99962.22;5129343;28;866;-57
2024/03/07 14:41:45;;;;;;;;;;;;;;;6.72;100.00;99969.56;5129323;28;815;-57
2024/03/07 14:44:11;;;;;;;;;;;;;;;6.70;100.00;99960.91;5129164;28;811;-57
2024/03/07 14:46:38;;;;;;;;;;;;;;;6.68;100.00;99968.75;5129140;28;863;-58
2024/03/07 14:49:04;;;;;;;;;;;;;;;6.61;100.00;99972.16;5129156;28;890;-58
2024/03/07 14:51:31;;;;;;;;;;;;;;;6.46;100.00;99967.63;5129124;28;811;-57
2024/03/07 14:53:58;;;;;;;;;;;;;;;6.39;100.00;99964.81;5129132;28;906;-57
2024/03/07 14:56:23;;;;;;;;;;;;;;;6.32;100.00;99977.25;5128906;28;1886;-57
2024/03/07 14:58:50;;;;;;;;;;;;;;;6.22;100.00;99966.91;5110462;28;1460;-57
2024/03/07 15:01:17;;;;;;;;;;;;;;;6.14;100.00;99970.69;5128976;28;870;-57
2024/03/07 15:03:45;;;;;;;;;;;;;;;6.10;100.00;99967.09;5128794;28;886;-57
2024/03/07 15:06:14;;;;;;;;;;;;;;;6.04;100.00;99979.53;5128539;28;1225;-58
2024/03/07 15:08:41;;;;;;;;;;;;;;;6.02;100.00;99973.66;5115095;28;850;-58
2024/03/07 15:11:16;;;;;;;;;;;;;;;5.98;100.00;99976.34;5114995;28;854;-57
2024/03/07 15:13:45;;;;;;;;;;;;;;;5.93;100.00;99984.81;5115194;28;870;-58
2024/03/07 15:16:12;;;;;;;;;;;;;;;5.87;100.00;99987.09;5115178;28;1949;-58
2024/03/07 15:18:38;;;;;;;;;;;;;;;5.78;100.00;99983.78;5114925;28;826;-58
2024/03/07 15:21:05;;;;;;;;;;;;;;;5.64;100.00;99991.78;5114967;28;852;-58
2024/03/07 15:23:36;;;;;;;;;;;;;;;5.53;100.00;99986.09;5096507;28;1331;-57
2024/03/07 15:26:04;;;;;;;;;;;;;;;5.42;100.00;99985.09;5114928;28;823;-58
2024/03/07 15:28:30;;;;;;;;;;;;;;;5.37;100.00;99988.94;5114674;28;843;-58
2024/03/07 15:30:59;;;;;;;;;;;;;;;5.32;100.00;99992.75;5114654;28;820;-58
2024/03/07 15:33:26;;;;;;;;;;;;;;;5.34;100.00;99995.16;5114889;28;858;-61
2024/03/07 15:35:53;;;;;;;;;;;;;;;5.32;100.00;100000.19;5114566;28;1942;-58
2024/03/07 15:38:19;;;;;;;;;;;;;;;5.26;100.00;99994.22;5096189;28;1203;-59
2024/03/07 15:40:46;;;;;;;;;;;;;;;5.26;100.00;99998.91;5114542;28;878;-58
2024/03/07 15:43:12;;;;;;;;;;;;;;;5.20;100.00;99997.59;5114604;28;865;-58
2024/03/07 15:45:41;;;;;;;;;;;;;;;5.23;100.00;99997.69;5114548;28;803;-59
2024/03/07 15:48:10;;;;;;;;;;;;;;;5.23;100.00;99994.94;5096063;28;1175;-58
2024/03/07 15:50:38;;;;;;;;;;;;;;;5.19;100.00;99996.81;5114392;28;830;-61
2024/03/07 15:53:07;;;;;;;;;;;;;;;5.16;100.00;99992.03;5114193;28;850;-61
2024/03/07 15:55:35;;;;;;;;;;;;;;;5.11;100.00;99993.13;5114208;28;1882;-61
2024/03/07 15:58:06;;;;;;;;;;;;;;;5.06;100.00;99993.44;5114026;28;838;-58
2024/03/07 16:00:34;;;;;;;;;;;;;;;5.09;100.00;99995.44;5114190;28;874;-59
2024/03/07 16:03:04;;;;;;;;;;;;;;;5.03;100.00;99990.59;5114174;28;975;-60
2024/03/07 16:05:31;;;;;;;;;;;;;;;5.03;100.00;99985.91;5113757;28;1371;-60
2024/03/07 16:07:59;;;;;;;;;;;;;;;5.03;100.00;99990.59;5095817;28;1333;-61
2024/03/07 16:10:27;;;;;;;;;;;;;;;5.02;100.00;99987.09;5114085;28;807;-61
2024/03/07 16:12:54;;;;;;;;;;;;;;;4.98;100.00;99983.47;5113926;28;870;-60
2024/03/07 16:15:22;;;;;;;;;;;;;;;4.95;100.00;99977.91;5113693;28;1967;-60
2024/03/07 16:17:54;;;;;;;;;;;;;;;4.96;100.00;99990.47;5113825;28;910;-60
2024/03/07 16:20:20;;;;;;;;;;;;;;;4.91;100.00;99992.34;5112741;28;897;-60
2024/03/07 16:22:48;;;;;;;;;;;;;;;4.87;100.00;99994.22;5113787;28;819;-60
2024/03/07 16:25:16;;;;;;;;;;;;;;;4.84;100.00;99984.00;5113531;28;825;-60
2024/03/07 16:27:45;;;;;;;;;;;;;;;4.82;100.00;99980.81;5113550;28;882;-60
2024/03/07 16:30:17;;;;;;;;;;;;;;;4.78;100.00;99990.09;5113446;28;858;-59
2024/03/07 16:32:47;;;;;;;;;;;;;;;4.81;100.00;99994.84;5113480;28;839;-60
2024/03/07 16:35:15;;;;;;;;;;;;;;;4.76;100.00;99984.16;5113319;28;1949;-60
2024/03/07 16:37:45;;;;;;;;;;;;;;;4.73;100.00;99987.63;5113808;28;807;-60
2024/03/07 16:40:12;;;;;;;;;;;;;;;4.69;100.00;99980.16;5113381;28;879;-60
2024/03/07 16:42:40;;;;;;;;;;;;;;;4.66;100.00;99991.81;5113274;28;886;-60
2024/03/07 16:45:13;;;;;;;;;;;;;;;4.64;100.00;99991.38;5113262;28;968;-60
2024/03/07 16:47:44;;;;;;;;;;;;;;;4.66;100.00;99999.22;5113132;28;910;-60
2024/03/07 16:50:14;;;;;;;;;;;;;;;4.65;100.00;100011.31;5113197;28;902;-61
2024/03/07 16:52:41;;;;;;;;;;;;;;;4.66;100.00;100018.41;5113346;28;894;-61
2024/03/07 16:55:10;;;;;;;;;;;;;;;4.67;100.00;100017.22;5112995;28;1886;-61
2024/03/07 16:57:40;;;;;;;;;;;;;;;4.66;100.00;100016.44;5112933;28;882;-61
2024/03/07 17:00:09;;;;;;;;;;;;;;;4.66;100.00;100015.66;5113167;28;808;-61
2024/03/07 17:02:37;;;;;;;;;;;;;;;4.67;100.00;100022.72;5112958;28;846;-61
2024/03/07 17:05:06;;;;;;;;;;;;;;;4.70;100.00;100027.50;5094438;28;1202;-61
2024/03/07 17:07:33;;;;;;;;;;;;;;;4.66;100.00;100030.13;5112687;28;1309;-61
2024/03/07 17:10:00;;;;;;;;;;;;;;;4.62;100.00;100029.25;5112759;28;826;-61
2024/03/07 17:12:27;;;;;;;;;;;;;;;4.62;100.00;100032.00;5112778;28;1018;-61
2024/03/07 17:14:53;;;;;;;;;;;;;;;4.62;100.00;100033.94;5112904;28;856;-61
2024/03/07 17:17:20;;;;;;;;;;;;;;;4.61;100.00;100032.34;5112614;28;1969;-62
2024/03/07 17:19:47;;;;;;;;;;;;;;;4.59;100.00;100029.97;5112645;28;867;-61
2024/03/07 17:22:15;;;;;;;;;;;;;;;4.60;100.00;100028.81;5112569;28;858;-61
2024/03/07 17:24:42;;;;;;;;;;;;;;;4.58;100.00;100033.84;5112511;28;835;-62
2024/03/07 17:27:09;;;;;;;;;;;;;;;4.54;100.00;100030.25;5094180;28;1219;-61
2024/03/07 17:29:36;;;;;;;;;;;;;;;4.50;100.00;100032.91;5112456;28;836;-61
2024/03/07 17:32:05;;;;;;;;;;;;;;;4.46;100.00;100034.78;5112268;28;807;-61
2024/03/07 17:34:32;;;;;;;;;;;;;;;4.47;100.00;100028.13;5112427;28;819;-61
2024/03/07 17:36:59;;;;;;;;;;;;;;;4.46;100.00;100021.09;5093891;28;1890;-61
2024/03/07 17:39:25;;;;;;;;;;;;;;;4.46;100.00;100012.88;5112320;28;831;-61
2024/03/07 17:41:52;;;;;;;;;;;;;;;4.46;100.00;100010.16;5112307;28;815;-62
2024/03/07 17:44:18;;;;;;;;;;;;;;;4.48;100.00;100009.75;5112307;28;933;-61
2024/03/07 17:46:45;;;;;;;;;;;;;;;4.50;100.00;100008.28;5094012;28;1195;-61
2024/03/07 17:49:13;;;;;;;;;;;;;;;4.55;100.00;100012.69;5112175;28;856;-62
2024/03/07 17:51:40;;;;;;;;;;;;;;;4.61;100.00;100022.22;5112287;28;874;-62
2024/03/07 17:54:07;;;;;;;;;;;;;;;4.62;100.00;100023.78;5112049;28;958;-61